sensor_id;sensor_type;location;lat;lon;timestamp;P1;durP1;ratioP1;P2;durP2;ratioP2
77160;SDS011;66135;0.000;0.000;2023-02-22T00:01:50;3.20;;;2.67;;
77160;SDS011;66135;0.000;0.000;2023-02-22T00:04:34;4.47;;;2.70;;
77160;SDS011;66135;0.000;0.000;2023-02-22T00:07:00;3.15;;;1.80;;
77160;SDS011;66135;0.000;0.000;2023-02-22T00:09:26;3.53;;;2.83;;
77160;SDS011;66135;0.000;0.000;2023-02-22T00:11:51;4.00;;;2.90;;
77160;SDS011;66135;0.000;0.000;2023-02-22T00:14:17;3.67;;;3.08;;
77160;SDS011;66135;0.000;0.000;2023-02-22T00:16:45;4.22;;;2.60;;
77160;SDS011;66135;0.000;0.000;2023-02-22T00:19:10;3.28;;;1.75;;
77160;SDS011;66135;0.000;0.000;2023-02-22T00:21:36;4.22;;;1.98;;
77160;SDS011;66135;0.000;0.000;2023-02-22T00:24:01;3.67;;;2.28;;
77160;SDS011;66135;0.000;0.000;2023-02-22T00:26:49;4.20;;;3.08;;
77160;SDS011;66135;0.000;0.000;2023-02-22T00:29:19;3.33;;;1.98;;
77160;SDS011;66135;0.000;0.000;2023-02-22T00:31:45;4.03;;;2.85;;
77160;SDS011;66135;0.000;0.000;2023-02-22T00:34:12;3.03;;;1.90;;
77160;SDS011;66135;0.000;0.000;2023-02-22T00:36:38;4.13;;;2.13;;
77160;SDS011;66135;0.000;0.000;2023-02-22T00:39:09;3.63;;;3.08;;
77160;SDS011;66135;0.000;0.000;2023-02-22T00:41:35;4.00;;;3.05;;
77160;SDS011;66135;0.000;0.000;2023-02-22T00:44:00;5.10;;;2.35;;
77160;SDS011;66135;0.000;0.000;2023-02-22T00:46:26;3.58;;;2.90;;
77160;SDS011;66135;0.000;0.000;2023-02-22T00:48:51;4.38;;;2.90;;
77160;SDS011;66135;0.000;0.000;2023-02-22T00:51:17;3.22;;;2.78;;
77160;SDS011;66135;0.000;0.000;2023-02-22T00:53:42;4.30;;;3.05;;
77160;SDS011;66135;0.000;0.000;2023-02-22T00:56:07;4.97;;;2.90;;
77160;SDS011;66135;0.000;0.000;2023-02-22T00:58:33;3.95;;;2.15;;
77160;SDS011;66135;0.000;0.000;2023-02-22T01:00:58;4.05;;;2.75;;
77160;SDS011;66135;0.000;0.000;2023-02-22T01:03:24;3.47;;;3.13;;
77160;SDS011;66135;0.000;0.000;2023-02-22T01:05:49;4.03;;;3.40;;
77160;SDS011;66135;0.000;0.000;2023-02-22T01:08:15;4.10;;;2.83;;
77160;SDS011;66135;0.000;0.000;2023-02-22T01:10:49;3.38;;;2.72;;
77160;SDS011;66135;0.000;0.000;2023-02-22T01:13:16;4.05;;;3.05;;
77160;SDS011;66135;0.000;0.000;2023-02-22T01:15:43;4.47;;;2.67;;
77160;SDS011;66135;0.000;0.000;2023-02-22T01:20:47;4.82;;;3.08;;
77160;SDS011;66135;0.000;0.000;2023-02-22T01:23:13;3.03;;;2.33;;
77160;SDS011;66135;0.000;0.000;2023-02-22T01:25:39;3.80;;;2.88;;
77160;SDS011;66135;0.000;0.000;2023-02-22T01:28:05;2.90;;;1.40;;
77160;SDS011;66135;0.000;0.000;2023-02-22T01:30:32;3.85;;;2.50;;
77160;SDS011;66135;0.000;0.000;2023-02-22T01:33:07;4.82;;;3.53;;
77160;SDS011;66135;0.000;0.000;2023-02-22T01:35:37;4.45;;;3.47;;
77160;SDS011;66135;0.000;0.000;2023-02-22T01:38:07;3.78;;;2.95;;
77160;SDS011;66135;0.000;0.000;2023-02-22T01:40:38;4.88;;;3.42;;
77160;SDS011;66135;0.000;0.000;2023-02-22T01:43:19;3.65;;;2.80;;
77160;SDS011;66135;0.000;0.000;2023-02-22T01:45:55;3.85;;;2.72;;
77160;SDS011;66135;0.000;0.000;2023-02-22T01:51:06;4.10;;;2.85;;
77160;SDS011;66135;0.000;0.000;2023-02-22T01:53:36;4.13;;;2.25;;
77160;SDS011;66135;0.000;0.000;2023-02-22T01:56:19;4.28;;;3.10;;
77160;SDS011;66135;0.000;0.000;2023-02-22T01:58:48;5.00;;;3.05;;
77160;SDS011;66135;0.000;0.000;2023-02-22T02:01:17;4.20;;;3.17;;
77160;SDS011;66135;0.000;0.000;2023-02-22T02:03:43;3.70;;;2.90;;
77160;SDS011;66135;0.000;0.000;2023-02-22T02:06:11;3.50;;;2.92;;
77160;SDS011;66135;0.000;0.000;2023-02-22T02:08:44;4.03;;;3.10;;
77160;SDS011;66135;0.000;0.000;2023-02-22T02:11:14;4.45;;;3.97;;
77160;SDS011;66135;0.000;0.000;2023-02-22T02:13:50;4.95;;;3.45;;
77160;SDS011;66135;0.000;0.000;2023-02-22T02:16:25;4.03;;;3.00;;
77160;SDS011;66135;0.000;0.000;2023-02-22T02:27:09;3.20;;;2.53;;
77160;SDS011;66135;0.000;0.000;2023-02-22T02:30:31;3.45;;;2.35;;
77160;SDS011;66135;0.000;0.000;2023-02-22T02:32:50;4.13;;;2.83;;
77160;SDS011;66135;0.000;0.000;2023-02-22T02:35:28;4.55;;;3.08;;
77160;SDS011;66135;0.000;0.000;2023-02-22T02:39:16;3.90;;;2.85;;
77160;SDS011;66135;0.000;0.000;2023-02-22T02:41:44;4.47;;;3.25;;
77160;SDS011;66135;0.000;0.000;2023-02-22T02:44:16;4.18;;;3.08;;
77160;SDS011;66135;0.000;0.000;2023-02-22T02:49:52;5.03;;;3.83;;
77160;SDS011;66135;0.000;0.000;2023-02-22T02:52:40;3.22;;;1.73;;
77160;SDS011;66135;0.000;0.000;2023-02-22T02:55:08;3.10;;;2.42;;
77160;SDS011;66135;0.000;0.000;2023-02-22T02:57:35;3.88;;;2.63;;
77160;SDS011;66135;0.000;0.000;2023-02-22T03:00:10;4.10;;;3.22;;
77160;SDS011;66135;0.000;0.000;2023-02-22T03:05:37;4.35;;;3.33;;
77160;SDS011;66135;0.000;0.000;2023-02-22T03:08:08;2.65;;;2.30;;
77160;SDS011;66135;0.000;0.000;2023-02-22T03:16:44;4.47;;;2.38;;
77160;SDS011;66135;0.000;0.000;2023-02-22T03:22:10;4.05;;;3.67;;
77160;SDS011;66135;0.000;0.000;2023-02-22T03:25:16;4.72;;;3.47;;
77160;SDS011;66135;0.000;0.000;2023-02-22T03:27:50;3.78;;;2.83;;
77160;SDS011;66135;0.000;0.000;2023-02-22T03:30:23;4.07;;;2.83;;
77160;SDS011;66135;0.000;0.000;2023-02-22T03:32:56;4.07;;;3.10;;
77160;SDS011;66135;0.000;0.000;2023-02-22T03:35:27;4.68;;;3.30;;
77160;SDS011;66135;0.000;0.000;2023-02-22T03:37:58;3.65;;;2.55;;
77160;SDS011;66135;0.000;0.000;2023-02-22T03:40:35;5.13;;;3.63;;
77160;SDS011;66135;0.000;0.000;2023-02-22T03:43:08;3.60;;;3.00;;
77160;SDS011;66135;0.000;0.000;2023-02-22T03:45:49;4.15;;;3.55;;
77160;SDS011;66135;0.000;0.000;2023-02-22T03:50:47;4.70;;;3.53;;
77160;SDS011;66135;0.000;0.000;2023-02-22T03:53:16;3.83;;;3.22;;
77160;SDS011;66135;0.000;0.000;2023-02-22T03:55:43;3.45;;;2.55;;
77160;SDS011;66135;0.000;0.000;2023-02-22T03:58:10;3.30;;;2.13;;
77160;SDS011;66135;0.000;0.000;2023-02-22T04:00:38;4.22;;;2.92;;
77160;SDS011;66135;0.000;0.000;2023-02-22T04:03:08;4.78;;;4.00;;
77160;SDS011;66135;0.000;0.000;2023-02-22T04:05:34;4.72;;;3.42;;
77160;SDS011;66135;0.000;0.000;2023-02-22T04:08:00;3.80;;;2.88;;
77160;SDS011;66135;0.000;0.000;2023-02-22T04:10:25;4.72;;;3.70;;
77160;SDS011;66135;0.000;0.000;2023-02-22T04:12:50;4.40;;;3.20;;
77160;SDS011;66135;0.000;0.000;2023-02-22T04:15:18;4.20;;;3.50;;
77160;SDS011;66135;0.000;0.000;2023-02-22T04:17:46;4.35;;;3.15;;
77160;SDS011;66135;0.000;0.000;2023-02-22T04:20:11;4.40;;;2.72;;
77160;SDS011;66135;0.000;0.000;2023-02-22T04:22:38;4.43;;;3.35;;
77160;SDS011;66135;0.000;0.000;2023-02-22T04:25:04;4.85;;;3.60;;
77160;SDS011;66135;0.000;0.000;2023-02-22T04:27:30;4.47;;;3.55;;
77160;SDS011;66135;0.000;0.000;2023-02-22T04:29:55;3.45;;;3.05;;
77160;SDS011;66135;0.000;0.000;2023-02-22T04:32:21;4.53;;;3.25;;
77160;SDS011;66135;0.000;0.000;2023-02-22T04:34:46;4.30;;;3.40;;
77160;SDS011;66135;0.000;0.000;2023-02-22T04:37:12;3.88;;;2.35;;
77160;SDS011;66135;0.000;0.000;2023-02-22T04:39:37;3.25;;;1.80;;
77160;SDS011;66135;0.000;0.000;2023-02-22T04:42:02;3.95;;;2.20;;
77160;SDS011;66135;0.000;0.000;2023-02-22T04:46:54;3.60;;;3.23;;
77160;SDS011;66135;0.000;0.000;2023-02-22T04:49:20;4.43;;;3.15;;
77160;SDS011;66135;0.000;0.000;2023-02-22T04:51:46;3.25;;;2.05;;
77160;SDS011;66135;0.000;0.000;2023-02-22T04:54:11;4.07;;;3.38;;
77160;SDS011;66135;0.000;0.000;2023-02-22T04:59:03;4.65;;;3.80;;
77160;SDS011;66135;0.000;0.000;2023-02-22T05:01:31;3.90;;;3.38;;
77160;SDS011;66135;0.000;0.000;2023-02-22T05:04:07;3.80;;;3.20;;
77160;SDS011;66135;0.000;0.000;2023-02-22T05:06:32;3.72;;;3.28;;
77160;SDS011;66135;0.000;0.000;2023-02-22T05:08:58;4.65;;;3.30;;
77160;SDS011;66135;0.000;0.000;2023-02-22T05:11:23;3.88;;;3.28;;
77160;SDS011;66135;0.000;0.000;2023-02-22T05:13:48;4.55;;;3.17;;
77160;SDS011;66135;0.000;0.000;2023-02-22T05:16:14;3.65;;;3.10;;
77160;SDS011;66135;0.000;0.000;2023-02-22T05:18:40;4.57;;;2.78;;
77160;SDS011;66135;0.000;0.000;2023-02-22T05:21:05;3.78;;;3.33;;
77160;SDS011;66135;0.000;0.000;2023-02-22T05:23:31;4.53;;;3.28;;
77160;SDS011;66135;0.000;0.000;2023-02-22T05:25:59;3.75;;;2.88;;
77160;SDS011;66135;0.000;0.000;2023-02-22T05:28:25;4.55;;;3.80;;
77160;SDS011;66135;0.000;0.000;2023-02-22T05:30:50;4.97;;;3.50;;
77160;SDS011;66135;0.000;0.000;2023-02-22T05:33:15;5.13;;;4.13;;
77160;SDS011;66135;0.000;0.000;2023-02-22T05:35:41;5.82;;;4.05;;
77160;SDS011;66135;0.000;0.000;2023-02-22T05:38:07;7.10;;;4.97;;
77160;SDS011;66135;0.000;0.000;2023-02-22T05:40:33;6.60;;;4.00;;
77160;SDS011;66135;0.000;0.000;2023-02-22T05:42:59;5.85;;;4.03;;
77160;SDS011;66135;0.000;0.000;2023-02-22T05:45:26;5.40;;;3.83;;
77160;SDS011;66135;0.000;0.000;2023-02-22T05:47:52;5.30;;;4.07;;
77160;SDS011;66135;0.000;0.000;2023-02-22T05:50:27;5.80;;;5.07;;
77160;SDS011;66135;0.000;0.000;2023-02-22T05:55:21;4.97;;;3.88;;
77160;SDS011;66135;0.000;0.000;2023-02-22T05:57:47;4.88;;;3.70;;
77160;SDS011;66135;0.000;0.000;2023-02-22T06:00:32;5.25;;;3.58;;
77160;SDS011;66135;0.000;0.000;2023-02-22T06:03:01;4.65;;;3.65;;
77160;SDS011;66135;0.000;0.000;2023-02-22T06:05:28;5.43;;;4.55;;
77160;SDS011;66135;0.000;0.000;2023-02-22T06:07:54;4.65;;;2.42;;
77160;SDS011;66135;0.000;0.000;2023-02-22T06:10:20;5.50;;;3.85;;
77160;SDS011;66135;0.000;0.000;2023-02-22T06:12:46;5.63;;;3.25;;
77160;SDS011;66135;0.000;0.000;2023-02-22T06:15:13;5.63;;;3.92;;
77160;SDS011;66135;0.000;0.000;2023-02-22T06:17:40;5.43;;;3.95;;
77160;SDS011;66135;0.000;0.000;2023-02-22T06:20:06;5.50;;;4.13;;
77160;SDS011;66135;0.000;0.000;2023-02-22T06:22:33;4.22;;;3.35;;
77160;SDS011;66135;0.000;0.000;2023-02-22T06:25:00;5.53;;;4.15;;
77160;SDS011;66135;0.000;0.000;2023-02-22T06:27:29;6.03;;;3.97;;
77160;SDS011;66135;0.000;0.000;2023-02-22T06:29:55;6.72;;;3.80;;
77160;SDS011;66135;0.000;0.000;2023-02-22T06:32:21;6.05;;;4.38;;
77160;SDS011;66135;0.000;0.000;2023-02-22T06:34:46;7.07;;;4.45;;
77160;SDS011;66135;0.000;0.000;2023-02-22T06:37:12;7.35;;;4.80;;
77160;SDS011;66135;0.000;0.000;2023-02-22T06:39:38;6.53;;;4.10;;
77160;SDS011;66135;0.000;0.000;2023-02-22T06:42:03;28.02;;;6.03;;
77160;SDS011;66135;0.000;0.000;2023-02-22T06:44:29;20.17;;;4.80;;
77160;SDS011;66135;0.000;0.000;2023-02-22T06:46:54;16.08;;;5.45;;
77160;SDS011;66135;0.000;0.000;2023-02-22T06:49:27;15.70;;;4.47;;
77160;SDS011;66135;0.000;0.000;2023-02-22T06:51:53;12.55;;;5.63;;
77160;SDS011;66135;0.000;0.000;2023-02-22T06:54:21;19.92;;;6.43;;
77160;SDS011;66135;0.000;0.000;2023-02-22T06:56:47;21.60;;;5.95;;
77160;SDS011;66135;0.000;0.000;2023-02-22T06:59:13;19.13;;;4.85;;
77160;SDS011;66135;0.000;0.000;2023-02-22T07:01:42;13.82;;;5.10;;
77160;SDS011;66135;0.000;0.000;2023-02-22T07:04:08;17.58;;;6.10;;
77160;SDS011;66135;0.000;0.000;2023-02-22T07:06:33;18.77;;;5.65;;
77160;SDS011;66135;0.000;0.000;2023-02-22T07:08:59;17.58;;;5.50;;
77160;SDS011;66135;0.000;0.000;2023-02-22T07:11:25;13.65;;;5.00;;
77160;SDS011;66135;0.000;0.000;2023-02-22T07:13:51;18.38;;;6.25;;
77160;SDS011;66135;0.000;0.000;2023-02-22T07:16:16;14.00;;;5.57;;
77160;SDS011;66135;0.000;0.000;2023-02-22T07:18:41;15.35;;;5.20;;
77160;SDS011;66135;0.000;0.000;2023-02-22T07:21:07;14.95;;;5.63;;
77160;SDS011;66135;0.000;0.000;2023-02-22T07:23:32;12.85;;;5.22;;
77160;SDS011;66135;0.000;0.000;2023-02-22T07:25:59;13.38;;;4.80;;
77160;SDS011;66135;0.000;0.000;2023-02-22T07:28:25;12.70;;;4.38;;
77160;SDS011;66135;0.000;0.000;2023-02-22T07:30:50;11.98;;;3.65;;
77160;SDS011;66135;0.000;0.000;2023-02-22T07:33:15;12.80;;;5.97;;
77160;SDS011;66135;0.000;0.000;2023-02-22T07:35:48;13.50;;;5.18;;
77160;SDS011;66135;0.000;0.000;2023-02-22T07:38:15;12.77;;;4.90;;
77160;SDS011;66135;0.000;0.000;2023-02-22T07:40:43;10.70;;;4.63;;
77160;SDS011;66135;0.000;0.000;2023-02-22T07:45:40;9.90;;;4.40;;
77160;SDS011;66135;0.000;0.000;2023-02-22T07:48:06;9.90;;;4.75;;
77160;SDS011;66135;0.000;0.000;2023-02-22T07:50:32;11.20;;;5.05;;
77160;SDS011;66135;0.000;0.000;2023-02-22T07:52:59;8.85;;;4.10;;
77160;SDS011;66135;0.000;0.000;2023-02-22T07:55:29;9.63;;;4.25;;
77160;SDS011;66135;0.000;0.000;2023-02-22T07:57:57;9.70;;;4.68;;
77160;SDS011;66135;0.000;0.000;2023-02-22T08:00:27;11.90;;;4.25;;
77160;SDS011;66135;0.000;0.000;2023-02-22T08:02:55;9.75;;;3.90;;
77160;SDS011;66135;0.000;0.000;2023-02-22T08:05:21;7.05;;;3.90;;
77160;SDS011;66135;0.000;0.000;2023-02-22T08:07:49;9.57;;;2.63;;
77160;SDS011;66135;0.000;0.000;2023-02-22T08:10:15;7.88;;;3.00;;
77160;SDS011;66135;0.000;0.000;2023-02-22T08:12:42;9.40;;;4.15;;
77160;SDS011;66135;0.000;0.000;2023-02-22T08:15:08;8.13;;;3.83;;
77160;SDS011;66135;0.000;0.000;2023-02-22T08:17:39;11.60;;;5.10;;
77160;SDS011;66135;0.000;0.000;2023-02-22T08:20:08;8.95;;;3.97;;
77160;SDS011;66135;0.000;0.000;2023-02-22T08:22:34;10.13;;;4.32;;
77160;SDS011;66135;0.000;0.000;2023-02-22T08:24:59;7.88;;;4.40;;
77160;SDS011;66135;0.000;0.000;2023-02-22T08:27:25;10.15;;;4.28;;
77160;SDS011;66135;0.000;0.000;2023-02-22T08:29:52;8.23;;;4.45;;
77160;SDS011;66135;0.000;0.000;2023-02-22T08:32:18;9.95;;;4.05;;
77160;SDS011;66135;0.000;0.000;2023-02-22T08:34:44;8.63;;;3.70;;
77160;SDS011;66135;0.000;0.000;2023-02-22T08:37:10;5.90;;;3.45;;
77160;SDS011;66135;0.000;0.000;2023-02-22T08:39:36;7.88;;;3.95;;
77160;SDS011;66135;0.000;0.000;2023-02-22T08:42:01;10.43;;;4.57;;
77160;SDS011;66135;0.000;0.000;2023-02-22T08:44:27;7.63;;;3.85;;
77160;SDS011;66135;0.000;0.000;2023-02-22T08:46:52;11.70;;;4.53;;
77160;SDS011;66135;0.000;0.000;2023-02-22T08:49:26;9.05;;;4.32;;
77160;SDS011;66135;0.000;0.000;2023-02-22T08:51:52;6.57;;;2.83;;
77160;SDS011;66135;0.000;0.000;2023-02-22T08:54:18;9.07;;;4.50;;
77160;SDS011;66135;0.000;0.000;2023-02-22T08:56:43;9.70;;;3.97;;
77160;SDS011;66135;0.000;0.000;2023-02-22T08:59:09;11.02;;;4.70;;
77160;SDS011;66135;0.000;0.000;2023-02-22T09:01:34;8.18;;;4.80;;
77160;SDS011;66135;0.000;0.000;2023-02-22T09:04:00;8.27;;;3.58;;
77160;SDS011;66135;0.000;0.000;2023-02-22T09:06:26;7.95;;;3.60;;
77160;SDS011;66135;0.000;0.000;2023-02-22T09:08:52;6.30;;;3.53;;
77160;SDS011;66135;0.000;0.000;2023-02-22T09:11:18;6.93;;;2.83;;
77160;SDS011;66135;0.000;0.000;2023-02-22T09:13:43;6.82;;;3.50;;
77160;SDS011;66135;0.000;0.000;2023-02-22T09:16:09;7.60;;;2.67;;
77160;SDS011;66135;0.000;0.000;2023-02-22T09:18:34;6.68;;;3.28;;
77160;SDS011;66135;0.000;0.000;2023-02-22T09:21:01;6.90;;;3.85;;
77160;SDS011;66135;0.000;0.000;2023-02-22T09:23:26;6.07;;;3.38;;
77160;SDS011;66135;0.000;0.000;2023-02-22T09:25:52;6.13;;;3.08;;
77160;SDS011;66135;0.000;0.000;2023-02-22T09:28:21;7.55;;;3.15;;
77160;SDS011;66135;0.000;0.000;2023-02-22T09:30:47;5.75;;;3.85;;
77160;SDS011;66135;0.000;0.000;2023-02-22T09:33:16;8.13;;;3.92;;
77160;SDS011;66135;0.000;0.000;2023-02-22T09:35:44;5.25;;;3.03;;
77160;SDS011;66135;0.000;0.000;2023-02-22T09:38:11;10.45;;;3.70;;
77160;SDS011;66135;0.000;0.000;2023-02-22T09:40:48;6.45;;;3.72;;
77160;SDS011;66135;0.000;0.000;2023-02-22T09:48:35;5.32;;;3.70;;
77160;SDS011;66135;0.000;0.000;2023-02-22T09:51:39;7.93;;;3.55;;
77160;SDS011;66135;0.000;0.000;2023-02-22T09:54:17;4.65;;;3.22;;
77160;SDS011;66135;0.000;0.000;2023-02-22T09:56:47;6.47;;;3.90;;
77160;SDS011;66135;0.000;0.000;2023-02-22T09:59:17;4.95;;;3.20;;
77160;SDS011;66135;0.000;0.000;2023-02-22T10:01:53;4.13;;;2.28;;
77160;SDS011;66135;0.000;0.000;2023-02-22T10:04:42;4.00;;;3.38;;
77160;SDS011;66135;0.000;0.000;2023-02-22T10:07:17;5.57;;;3.63;;
77160;SDS011;66135;0.000;0.000;2023-02-22T10:09:50;4.78;;;3.60;;
77160;SDS011;66135;0.000;0.000;2023-02-22T10:12:27;5.65;;;3.08;;
77160;SDS011;66135;0.000;0.000;2023-02-22T10:17:59;6.20;;;2.80;;
77160;SDS011;66135;0.000;0.000;2023-02-22T10:20:36;6.30;;;3.65;;
77160;SDS011;66135;0.000;0.000;2023-02-22T10:23:49;8.45;;;4.10;;
77160;SDS011;66135;0.000;0.000;2023-02-22T10:26:12;6.68;;;3.17;;
77160;SDS011;66135;0.000;0.000;2023-02-22T10:28:41;6.10;;;3.90;;
77160;SDS011;66135;0.000;0.000;2023-02-22T10:31:23;7.70;;;2.97;;
77160;SDS011;66135;0.000;0.000;2023-02-22T10:33:54;6.82;;;3.38;;
77160;SDS011;66135;0.000;0.000;2023-02-22T10:36:58;7.22;;;3.35;;
77160;SDS011;66135;0.000;0.000;2023-02-22T10:39:33;5.78;;;3.38;;
77160;SDS011;66135;0.000;0.000;2023-02-22T10:42:02;5.78;;;2.65;;
77160;SDS011;66135;0.000;0.000;2023-02-22T10:44:31;8.88;;;3.70;;
77160;SDS011;66135;0.000;0.000;2023-02-22T10:46:58;8.52;;;3.55;;
77160;SDS011;66135;0.000;0.000;2023-02-22T10:49:40;8.45;;;3.90;;
77160;SDS011;66135;0.000;0.000;2023-02-22T10:55:00;6.25;;;3.78;;
77160;SDS011;66135;0.000;0.000;2023-02-22T10:57:34;7.30;;;4.22;;
77160;SDS011;66135;0.000;0.000;2023-02-22T11:00:13;9.27;;;3.72;;
77160;SDS011;66135;0.000;0.000;2023-02-22T11:02:53;11.18;;;3.72;;
77160;SDS011;66135;0.000;0.000;2023-02-22T11:05:40;4.53;;;3.60;;
77160;SDS011;66135;0.000;0.000;2023-02-22T11:08:28;6.53;;;3.50;;
77160;SDS011;66135;0.000;0.000;2023-02-22T11:10:54;9.25;;;3.70;;
77160;SDS011;66135;0.000;0.000;2023-02-22T11:15:55;8.40;;;3.60;;
77160;SDS011;66135;0.000;0.000;2023-02-22T11:18:39;7.80;;;4.05;;
77160;SDS011;66135;0.000;0.000;2023-02-22T11:21:08;9.68;;;4.15;;
77160;SDS011;66135;0.000;0.000;2023-02-22T11:23:36;7.00;;;4.47;;
77160;SDS011;66135;0.000;0.000;2023-02-22T11:26:12;7.43;;;4.80;;
77160;SDS011;66135;0.000;0.000;2023-02-22T11:28:42;11.10;;;4.18;;
77160;SDS011;66135;0.000;0.000;2023-02-22T11:31:20;9.98;;;4.00;;
77160;SDS011;66135;0.000;0.000;2023-02-22T11:34:00;8.75;;;4.85;;
77160;SDS011;66135;0.000;0.000;2023-02-22T11:36:29;8.95;;;4.45;;
77160;SDS011;66135;0.000;0.000;2023-02-22T11:39:26;9.52;;;4.13;;
77160;SDS011;66135;0.000;0.000;2023-02-22T11:41:54;10.77;;;4.07;;
77160;SDS011;66135;0.000;0.000;2023-02-22T11:47:46;12.23;;;4.13;;
77160;SDS011;66135;0.000;0.000;2023-02-22T11:58:35;13.55;;;5.10;;
77160;SDS011;66135;0.000;0.000;2023-02-22T12:01:42;10.93;;;4.88;;
77160;SDS011;66135;0.000;0.000;2023-02-22T12:12:07;12.75;;;4.65;;
77160;SDS011;66135;0.000;0.000;2023-02-22T12:17:47;10.52;;;4.75;;
77160;SDS011;66135;0.000;0.000;2023-02-22T12:20:21;9.07;;;3.40;;
77160;SDS011;66135;0.000;0.000;2023-02-22T12:25:36;11.48;;;4.53;;
77160;SDS011;66135;0.000;0.000;2023-02-22T12:30:37;11.18;;;4.13;;
77160;SDS011;66135;0.000;0.000;2023-02-22T12:33:18;15.43;;;5.80;;
77160;SDS011;66135;0.000;0.000;2023-02-22T12:35:53;12.55;;;4.80;;
77160;SDS011;66135;0.000;0.000;2023-02-22T12:38:33;14.02;;;4.60;;
77160;SDS011;66135;0.000;0.000;2023-02-22T12:43:48;12.55;;;5.18;;
77160;SDS011;66135;0.000;0.000;2023-02-22T12:54:01;11.63;;;4.32;;
77160;SDS011;66135;0.000;0.000;2023-02-22T12:59:32;11.93;;;5.88;;
77160;SDS011;66135;0.000;0.000;2023-02-22T13:02:21;12.27;;;4.53;;
77160;SDS011;66135;0.000;0.000;2023-02-22T13:05:19;13.10;;;4.18;;
77160;SDS011;66135;0.000;0.000;2023-02-22T13:10:42;11.95;;;5.25;;
77160;SDS011;66135;0.000;0.000;2023-02-22T13:19:23;11.85;;;5.45;;
77160;SDS011;66135;0.000;0.000;2023-02-22T13:21:57;14.18;;;5.03;;
77160;SDS011;66135;0.000;0.000;2023-02-22T13:27:47;20.30;;;6.10;;
77160;SDS011;66135;0.000;0.000;2023-02-22T13:30:40;22.40;;;8.45;;
77160;SDS011;66135;0.000;0.000;2023-02-22T13:36:34;17.10;;;5.13;;
77160;SDS011;66135;0.000;0.000;2023-02-22T13:45:28;19.58;;;6.90;;
77160;SDS011;66135;0.000;0.000;2023-02-22T13:53:19;18.48;;;6.57;;
77160;SDS011;66135;0.000;0.000;2023-02-22T13:55:54;17.17;;;6.63;;
77160;SDS011;66135;0.000;0.000;2023-02-22T13:58:27;16.85;;;6.82;;
77160;SDS011;66135;0.000;0.000;2023-02-22T14:00:54;16.35;;;5.30;;
77160;SDS011;66135;0.000;0.000;2023-02-22T14:05:54;16.38;;;6.88;;
77160;SDS011;66135;0.000;0.000;2023-02-22T14:16:30;14.63;;;5.93;;
77160;SDS011;66135;0.000;0.000;2023-02-22T14:19:13;15.35;;;6.25;;
77160;SDS011;66135;0.000;0.000;2023-02-22T14:21:54;16.63;;;6.43;;
77160;SDS011;66135;0.000;0.000;2023-02-22T14:24:22;21.80;;;6.68;;
77160;SDS011;66135;0.000;0.000;2023-02-22T14:26:58;13.65;;;5.82;;
77160;SDS011;66135;0.000;0.000;2023-02-22T14:29:34;17.25;;;5.93;;
77160;SDS011;66135;0.000;0.000;2023-02-22T14:32:01;11.77;;;5.55;;
77160;SDS011;66135;0.000;0.000;2023-02-22T14:37:10;18.30;;;5.75;;
77160;SDS011;66135;0.000;0.000;2023-02-22T14:40:01;18.30;;;6.90;;
77160;SDS011;66135;0.000;0.000;2023-02-22T14:42:48;13.15;;;6.65;;
77160;SDS011;66135;0.000;0.000;2023-02-22T14:53:17;11.07;;;5.32;;
77160;SDS011;66135;0.000;0.000;2023-02-22T14:56:54;13.77;;;5.78;;
77160;SDS011;66135;0.000;0.000;2023-02-22T15:01:44;14.38;;;6.85;;
77160;SDS011;66135;0.000;0.000;2023-02-22T15:06:45;17.30;;;6.43;;
77160;SDS011;66135;0.000;0.000;2023-02-22T15:09:21;11.00;;;5.68;;
77160;SDS011;66135;0.000;0.000;2023-02-22T15:11:49;13.05;;;5.40;;
77160;SDS011;66135;0.000;0.000;2023-02-22T15:14:24;10.85;;;5.65;;
77160;SDS011;66135;0.000;0.000;2023-02-22T15:17:00;11.43;;;5.00;;
77160;SDS011;66135;0.000;0.000;2023-02-22T15:19:42;10.20;;;5.40;;
77160;SDS011;66135;0.000;0.000;2023-02-22T15:22:30;11.82;;;5.57;;
77160;SDS011;66135;0.000;0.000;2023-02-22T15:25:22;13.90;;;5.40;;
77160;SDS011;66135;0.000;0.000;2023-02-22T15:28:05;10.10;;;5.53;;
77160;SDS011;66135;0.000;0.000;2023-02-22T15:30:33;13.88;;;5.63;;
77160;SDS011;66135;0.000;0.000;2023-02-22T15:33:15;13.15;;;5.53;;
77160;SDS011;66135;0.000;0.000;2023-02-22T15:36:02;12.32;;;5.05;;
77160;SDS011;66135;0.000;0.000;2023-02-22T15:38:29;12.73;;;4.30;;
77160;SDS011;66135;0.000;0.000;2023-02-22T15:41:02;15.25;;;6.45;;
77160;SDS011;66135;0.000;0.000;2023-02-22T15:43:28;12.90;;;5.60;;
77160;SDS011;66135;0.000;0.000;2023-02-22T15:45:56;12.40;;;5.72;;
77160;SDS011;66135;0.000;0.000;2023-02-22T15:48:23;14.52;;;5.13;;
77160;SDS011;66135;0.000;0.000;2023-02-22T15:51:07;20.80;;;7.05;;
77160;SDS011;66135;0.000;0.000;2023-02-22T15:53:43;12.15;;;5.22;;
77160;SDS011;66135;0.000;0.000;2023-02-22T15:56:41;9.70;;;5.82;;
77160;SDS011;66135;0.000;0.000;2023-02-22T15:59:19;12.38;;;5.57;;
77160;SDS011;66135;0.000;0.000;2023-02-22T16:01:48;10.95;;;5.50;;
77160;SDS011;66135;0.000;0.000;2023-02-22T16:04:20;12.52;;;4.05;;
77160;SDS011;66135;0.000;0.000;2023-02-22T16:06:48;13.93;;;4.93;;
77160;SDS011;66135;0.000;0.000;2023-02-22T16:09:16;12.20;;;4.63;;
77160;SDS011;66135;0.000;0.000;2023-02-22T16:11:50;12.23;;;4.45;;
77160;SDS011;66135;0.000;0.000;2023-02-22T16:14:44;10.40;;;4.47;;
77160;SDS011;66135;0.000;0.000;2023-02-22T16:19:57;13.93;;;5.78;;
77160;SDS011;66135;0.000;0.000;2023-02-22T16:22:44;9.25;;;4.57;;
77160;SDS011;66135;0.000;0.000;2023-02-22T16:28:23;9.77;;;3.83;;
77160;SDS011;66135;0.000;0.000;2023-02-22T16:30:55;13.35;;;5.13;;
77160;SDS011;66135;0.000;0.000;2023-02-22T16:33:21;11.90;;;4.55;;
77160;SDS011;66135;0.000;0.000;2023-02-22T16:35:47;10.38;;;4.35;;
77160;SDS011;66135;0.000;0.000;2023-02-22T16:38:21;7.90;;;4.88;;
77160;SDS011;66135;0.000;0.000;2023-02-22T16:40:48;11.13;;;3.88;;
77160;SDS011;66135;0.000;0.000;2023-02-22T16:43:17;9.40;;;4.05;;
77160;SDS011;66135;0.000;0.000;2023-02-22T16:45:44;11.00;;;4.80;;
77160;SDS011;66135;0.000;0.000;2023-02-22T16:50:41;7.88;;;2.95;;
77160;SDS011;66135;0.000;0.000;2023-02-22T16:53:06;11.27;;;4.18;;
77160;SDS011;66135;0.000;0.000;2023-02-22T16:55:32;10.05;;;4.95;;
77160;SDS011;66135;0.000;0.000;2023-02-22T16:58:00;9.90;;;4.60;;
77160;SDS011;66135;0.000;0.000;2023-02-22T17:00:28;11.02;;;4.55;;
77160;SDS011;66135;0.000;0.000;2023-02-22T17:02:59;13.30;;;4.13;;
77160;SDS011;66135;0.000;0.000;2023-02-22T17:05:32;9.45;;;3.42;;
77160;SDS011;66135;0.000;0.000;2023-02-22T17:08:04;11.00;;;3.95;;
77160;SDS011;66135;0.000;0.000;2023-02-22T17:10:30;10.38;;;3.05;;
77160;SDS011;66135;0.000;0.000;2023-02-22T17:12:56;6.38;;;4.15;;
77160;SDS011;66135;0.000;0.000;2023-02-22T17:15:23;10.57;;;4.95;;
77160;SDS011;66135;0.000;0.000;2023-02-22T17:17:53;14.38;;;5.00;;
77160;SDS011;66135;0.000;0.000;2023-02-22T17:20:20;11.38;;;4.45;;
77160;SDS011;66135;0.000;0.000;2023-02-22T17:22:59;9.60;;;4.55;;
77160;SDS011;66135;0.000;0.000;2023-02-22T17:25:28;8.77;;;3.10;;
77160;SDS011;66135;0.000;0.000;2023-02-22T17:27:56;10.05;;;4.55;;
77160;SDS011;66135;0.000;0.000;2023-02-22T17:30:22;8.73;;;4.22;;
77160;SDS011;66135;0.000;0.000;2023-02-22T17:32:48;9.32;;;4.10;;
77160;SDS011;66135;0.000;0.000;2023-02-22T17:35:16;9.82;;;3.83;;
77160;SDS011;66135;0.000;0.000;2023-02-22T17:37:44;7.82;;;4.20;;
77160;SDS011;66135;0.000;0.000;2023-02-22T17:40:12;10.25;;;5.32;;
77160;SDS011;66135;0.000;0.000;2023-02-22T17:45:04;5.75;;;3.70;;
77160;SDS011;66135;0.000;0.000;2023-02-22T17:47:29;9.85;;;4.05;;
77160;SDS011;66135;0.000;0.000;2023-02-22T17:49:55;11.25;;;5.25;;
77160;SDS011;66135;0.000;0.000;2023-02-22T17:52:22;8.95;;;4.80;;
77160;SDS011;66135;0.000;0.000;2023-02-22T17:54:51;10.45;;;4.68;;
77160;SDS011;66135;0.000;0.000;2023-02-22T17:57:17;9.27;;;4.85;;
77160;SDS011;66135;0.000;0.000;2023-02-22T17:59:42;11.43;;;4.43;;
77160;SDS011;66135;0.000;0.000;2023-02-22T18:02:08;8.88;;;4.40;;